sensor_id;sensor_type;location;lat;lon;timestamp;P1;durP1;ratioP1;P2;durP2;ratioP2
18338;SDS011;9295;44.484;11.240;2022-10-31T00:01:20;25.30;;;13.83;;
18338;SDS011;9295;44.484;11.240;2022-10-31T00:03:50;27.40;;;13.43;;
18338;SDS011;9295;44.484;11.240;2022-10-31T00:06:19;29.67;;;13.50;;
18338;SDS011;9295;44.484;11.240;2022-10-31T00:08:51;27.50;;;13.60;;
18338;SDS011;9295;44.484;11.240;2022-10-31T00:11:21;26.80;;;13.30;;
18338;SDS011;9295;44.484;11.240;2022-10-31T00:13:51;29.83;;;13.50;;
18338;SDS011;9295;44.484;11.240;2022-10-31T00:16:20;24.57;;;13.13;;
18338;SDS011;9295;44.484;11.240;2022-10-31T00:18:49;28.47;;;13.07;;
18338;SDS011;9295;44.484;11.240;2022-10-31T00:21:18;26.80;;;13.43;;
18338;SDS011;9295;44.484;11.240;2022-10-31T00:23:47;29.63;;;13.17;;
18338;SDS011;9295;44.484;11.240;2022-10-31T00:26:16;31.27;;;13.93;;
18338;SDS011;9295;44.484;11.240;2022-10-31T00:28:46;32.00;;;14.17;;
18338;SDS011;9295;44.484;11.240;2022-10-31T00:31:15;25.10;;;13.23;;
18338;SDS011;9295;44.484;11.240;2022-10-31T00:33:43;25.53;;;12.73;;
18338;SDS011;9295;44.484;11.240;2022-10-31T00:36:12;29.63;;;14.67;;
18338;SDS011;9295;44.484;11.240;2022-10-31T00:38:42;25.53;;;13.30;;
18338;SDS011;9295;44.484;11.240;2022-10-31T00:41:12;29.67;;;14.93;;
18338;SDS011;9295;44.484;11.240;2022-10-31T00:43:41;28.30;;;14.60;;
18338;SDS011;9295;44.484;11.240;2022-10-31T00:46:12;34.63;;;16.57;;
18338;SDS011;9295;44.484;11.240;2022-10-31T00:48:41;27.57;;;14.63;;
18338;SDS011;9295;44.484;11.240;2022-10-31T00:51:09;23.37;;;13.67;;
18338;SDS011;9295;44.484;11.240;2022-10-31T00:53:40;24.67;;;14.33;;
18338;SDS011;9295;44.484;11.240;2022-10-31T00:56:08;28.00;;;13.63;;
18338;SDS011;9295;44.484;11.240;2022-10-31T00:58:37;30.03;;;15.10;;
18338;SDS011;9295;44.484;11.240;2022-10-31T01:01:06;27.17;;;14.33;;
18338;SDS011;9295;44.484;11.240;2022-10-31T01:03:36;26.73;;;13.07;;
18338;SDS011;9295;44.484;11.240;2022-10-31T01:06:11;25.53;;;13.00;;
18338;SDS011;9295;44.484;11.240;2022-10-31T01:08:40;26.13;;;13.07;;
18338;SDS011;9295;44.484;11.240;2022-10-31T01:11:13;25.50;;;13.00;;
18338;SDS011;9295;44.484;11.240;2022-10-31T01:13:42;23.30;;;12.80;;
18338;SDS011;9295;44.484;11.240;2022-10-31T01:16:12;19.87;;;12.50;;
18338;SDS011;9295;44.484;11.240;2022-10-31T01:18:43;34.93;;;13.97;;
18338;SDS011;9295;44.484;11.240;2022-10-31T01:21:13;22.60;;;12.23;;
18338;SDS011;9295;44.484;11.240;2022-10-31T01:23:43;24.57;;;13.37;;
18338;SDS011;9295;44.484;11.240;2022-10-31T01:26:13;24.83;;;13.73;;
18338;SDS011;9295;44.484;11.240;2022-10-31T01:28:45;20.20;;;12.40;;
18338;SDS011;9295;44.484;11.240;2022-10-31T01:31:15;22.90;;;12.80;;
18338;SDS011;9295;44.484;11.240;2022-10-31T01:33:46;25.17;;;12.60;;
18338;SDS011;9295;44.484;11.240;2022-10-31T01:36:15;23.47;;;14.07;;
18338;SDS011;9295;44.484;11.240;2022-10-31T01:38:50;30.67;;;12.40;;
18338;SDS011;9295;44.484;11.240;2022-10-31T01:41:20;28.90;;;13.67;;
18338;SDS011;9295;44.484;11.240;2022-10-31T01:43:50;26.70;;;13.13;;
18338;SDS011;9295;44.484;11.240;2022-10-31T01:46:20;21.27;;;12.33;;
18338;SDS011;9295;44.484;11.240;2022-10-31T01:48:53;23.07;;;12.80;;
18338;SDS011;9295;44.484;11.240;2022-10-31T01:51:26;22.03;;;13.13;;
18338;SDS011;9295;44.484;11.240;2022-10-31T01:53:59;24.13;;;12.17;;
18338;SDS011;9295;44.484;11.240;2022-10-31T01:56:31;24.73;;;14.03;;
18338;SDS011;9295;44.484;11.240;2022-10-31T01:59:04;27.33;;;13.07;;
18338;SDS011;9295;44.484;11.240;2022-10-31T02:01:35;33.83;;;13.70;;
18338;SDS011;9295;44.484;11.240;2022-10-31T02:04:05;22.70;;;13.57;;
18338;SDS011;9295;44.484;11.240;2022-10-31T02:06:35;22.07;;;11.73;;
18338;SDS011;9295;44.484;11.240;2022-10-31T02:09:11;25.03;;;12.60;;
18338;SDS011;9295;44.484;11.240;2022-10-31T02:11:41;25.27;;;12.37;;
18338;SDS011;9295;44.484;11.240;2022-10-31T02:14:11;26.43;;;13.37;;
18338;SDS011;9295;44.484;11.240;2022-10-31T02:16:41;24.67;;;13.30;;
18338;SDS011;9295;44.484;11.240;2022-10-31T02:19:12;26.07;;;13.63;;
18338;SDS011;9295;44.484;11.240;2022-10-31T02:21:48;25.77;;;13.00;;
18338;SDS011;9295;44.484;11.240;2022-10-31T02:27:27;24.77;;;13.93;;
18338;SDS011;9295;44.484;11.240;2022-10-31T02:30:11;22.17;;;12.90;;
18338;SDS011;9295;44.484;11.240;2022-10-31T02:32:50;29.33;;;12.97;;
18338;SDS011;9295;44.484;11.240;2022-10-31T02:38:23;23.87;;;13.00;;
18338;SDS011;9295;44.484;11.240;2022-10-31T02:41:01;20.97;;;11.70;;
18338;SDS011;9295;44.484;11.240;2022-10-31T02:43:51;20.63;;;13.40;;
18338;SDS011;9295;44.484;11.240;2022-10-31T02:46:28;24.60;;;13.60;;
18338;SDS011;9295;44.484;11.240;2022-10-31T02:49:03;27.10;;;12.77;;
18338;SDS011;9295;44.484;11.240;2022-10-31T02:51:38;22.23;;;12.57;;
18338;SDS011;9295;44.484;11.240;2022-10-31T02:54:15;26.27;;;13.27;;
18338;SDS011;9295;44.484;11.240;2022-10-31T02:56:49;23.93;;;12.90;;
18338;SDS011;9295;44.484;11.240;2022-10-31T02:59:20;20.73;;;12.80;;
18338;SDS011;9295;44.484;11.240;2022-10-31T03:02:00;23.50;;;13.10;;
18338;SDS011;9295;44.484;11.240;2022-10-31T03:05:02;28.10;;;11.73;;
18338;SDS011;9295;44.484;11.240;2022-10-31T03:07:52;22.93;;;13.90;;
18338;SDS011;9295;44.484;11.240;2022-10-31T03:10:27;23.03;;;12.70;;
18338;SDS011;9295;44.484;11.240;2022-10-31T03:13:05;25.43;;;13.13;;
18338;SDS011;9295;44.484;11.240;2022-10-31T03:15:39;25.30;;;14.57;;
18338;SDS011;9295;44.484;11.240;2022-10-31T03:18:11;24.70;;;13.20;;
18338;SDS011;9295;44.484;11.240;2022-10-31T03:20:47;23.00;;;13.50;;
18338;SDS011;9295;44.484;11.240;2022-10-31T03:23:21;29.10;;;17.63;;
18338;SDS011;9295;44.484;11.240;2022-10-31T03:25:52;27.60;;;17.40;;
18338;SDS011;9295;44.484;11.240;2022-10-31T03:28:26;21.10;;;14.00;;
18338;SDS011;9295;44.484;11.240;2022-10-31T03:31:04;22.87;;;12.77;;
18338;SDS011;9295;44.484;11.240;2022-10-31T03:33:37;27.47;;;13.30;;
18338;SDS011;9295;44.484;11.240;2022-10-31T03:36:11;23.87;;;13.70;;
18338;SDS011;9295;44.484;11.240;2022-10-31T03:38:44;24.83;;;12.87;;
18338;SDS011;9295;44.484;11.240;2022-10-31T03:41:17;21.27;;;11.03;;
18338;SDS011;9295;44.484;11.240;2022-10-31T03:43:51;26.47;;;12.50;;
18338;SDS011;9295;44.484;11.240;2022-10-31T03:46:24;22.80;;;11.70;;
18338;SDS011;9295;44.484;11.240;2022-10-31T03:48:56;20.97;;;12.00;;
18338;SDS011;9295;44.484;11.240;2022-10-31T03:51:28;21.03;;;11.97;;
18338;SDS011;9295;44.484;11.240;2022-10-31T03:54:06;21.77;;;12.87;;
18338;SDS011;9295;44.484;11.240;2022-10-31T03:56:40;24.37;;;12.90;;
18338;SDS011;9295;44.484;11.240;2022-10-31T03:59:14;18.13;;;12.10;;
18338;SDS011;9295;44.484;11.240;2022-10-31T04:01:46;23.07;;;12.10;;
18338;SDS011;9295;44.484;11.240;2022-10-31T04:04:18;26.03;;;12.23;;
18338;SDS011;9295;44.484;11.240;2022-10-31T04:06:50;21.70;;;11.87;;
18338;SDS011;9295;44.484;11.240;2022-10-31T04:09:19;20.03;;;12.30;;
18338;SDS011;9295;44.484;11.240;2022-10-31T04:11:50;23.57;;;12.93;;
18338;SDS011;9295;44.484;11.240;2022-10-31T04:14:46;29.13;;;12.30;;
18338;SDS011;9295;44.484;11.240;2022-10-31T04:17:17;25.23;;;13.10;;
18338;SDS011;9295;44.484;11.240;2022-10-31T04:19:49;19.50;;;11.70;;
18338;SDS011;9295;44.484;11.240;2022-10-31T04:22:19;26.37;;;12.83;;
18338;SDS011;9295;44.484;11.240;2022-10-31T04:24:47;25.57;;;12.30;;
18338;SDS011;9295;44.484;11.240;2022-10-31T04:27:17;19.53;;;11.17;;
18338;SDS011;9295;44.484;11.240;2022-10-31T04:29:45;19.73;;;11.70;;
18338;SDS011;9295;44.484;11.240;2022-10-31T04:32:16;26.47;;;12.30;;
18338;SDS011;9295;44.484;11.240;2022-10-31T04:34:45;20.03;;;12.33;;
18338;SDS011;9295;44.484;11.240;2022-10-31T04:37:13;23.83;;;13.90;;
18338;SDS011;9295;44.484;11.240;2022-10-31T04:39:43;28.23;;;14.67;;
18338;SDS011;9295;44.484;11.240;2022-10-31T04:42:30;27.80;;;14.33;;
18338;SDS011;9295;44.484;11.240;2022-10-31T04:45:02;23.13;;;12.63;;
18338;SDS011;9295;44.484;11.240;2022-10-31T04:47:34;19.37;;;11.40;;
18338;SDS011;9295;44.484;11.240;2022-10-31T04:50:03;23.13;;;11.47;;
18338;SDS011;9295;44.484;11.240;2022-10-31T04:52:38;20.87;;;10.90;;
18338;SDS011;9295;44.484;11.240;2022-10-31T04:55:10;22.10;;;11.60;;
18338;SDS011;9295;44.484;11.240;2022-10-31T04:57:58;19.40;;;11.27;;
18338;SDS011;9295;44.484;11.240;2022-10-31T05:00:27;20.30;;;11.07;;
18338;SDS011;9295;44.484;11.240;2022-10-31T05:02:57;20.50;;;12.37;;
18338;SDS011;9295;44.484;11.240;2022-10-31T05:05:27;23.73;;;11.00;;
18338;SDS011;9295;44.484;11.240;2022-10-31T05:07:59;20.17;;;10.60;;
18338;SDS011;9295;44.484;11.240;2022-10-31T05:10:31;23.63;;;11.50;;
18338;SDS011;9295;44.484;11.240;2022-10-31T05:13:02;15.60;;;10.53;;
18338;SDS011;9295;44.484;11.240;2022-10-31T05:15:52;20.53;;;10.83;;
18338;SDS011;9295;44.484;11.240;2022-10-31T05:18:49;23.10;;;11.87;;
18338;SDS011;9295;44.484;11.240;2022-10-31T05:21:36;21.20;;;10.37;;
18338;SDS011;9295;44.484;11.240;2022-10-31T05:24:04;20.83;;;11.10;;
18338;SDS011;9295;44.484;11.240;2022-10-31T05:26:36;22.00;;;11.90;;
18338;SDS011;9295;44.484;11.240;2022-10-31T05:29:04;24.77;;;12.27;;
18338;SDS011;9295;44.484;11.240;2022-10-31T05:31:34;21.70;;;11.80;;
18338;SDS011;9295;44.484;11.240;2022-10-31T05:34:05;21.03;;;11.93;;
18338;SDS011;9295;44.484;11.240;2022-10-31T05:36:52;20.43;;;11.67;;
18338;SDS011;9295;44.484;11.240;2022-10-31T05:39:22;27.43;;;12.97;;
18338;SDS011;9295;44.484;11.240;2022-10-31T05:41:56;21.60;;;12.10;;
18338;SDS011;9295;44.484;11.240;2022-10-31T05:44:26;26.60;;;12.13;;
18338;SDS011;9295;44.484;11.240;2022-10-31T05:47:17;19.07;;;11.10;;
18338;SDS011;9295;44.484;11.240;2022-10-31T05:49:54;19.43;;;11.87;;
18338;SDS011;9295;44.484;11.240;2022-10-31T05:52:53;24.80;;;12.37;;
18338;SDS011;9295;44.484;11.240;2022-10-31T05:55:32;23.97;;;11.50;;
18338;SDS011;9295;44.484;11.240;2022-10-31T05:58:22;23.43;;;12.57;;
18338;SDS011;9295;44.484;11.240;2022-10-31T06:01:00;25.73;;;12.10;;
18338;SDS011;9295;44.484;11.240;2022-10-31T06:03:29;17.43;;;10.60;;
18338;SDS011;9295;44.484;11.240;2022-10-31T06:05:59;23.53;;;10.70;;
18338;SDS011;9295;44.484;11.240;2022-10-31T06:08:40;21.00;;;11.67;;
18338;SDS011;9295;44.484;11.240;2022-10-31T06:11:14;20.43;;;11.70;;
18338;SDS011;9295;44.484;11.240;2022-10-31T06:14:10;23.40;;;12.03;;
18338;SDS011;9295;44.484;11.240;2022-10-31T06:16:57;22.40;;;11.03;;
18338;SDS011;9295;44.484;11.240;2022-10-31T06:19:43;17.23;;;10.17;;
18338;SDS011;9295;44.484;11.240;2022-10-31T06:22:18;23.30;;;12.40;;
18338;SDS011;9295;44.484;11.240;2022-10-31T06:24:47;22.17;;;11.80;;
18338;SDS011;9295;44.484;11.240;2022-10-31T06:27:28;14.77;;;9.60;;
18338;SDS011;9295;44.484;11.240;2022-10-31T06:30:03;16.03;;;9.57;;
18338;SDS011;9295;44.484;11.240;2022-10-31T06:32:34;15.70;;;9.70;;
18338;SDS011;9295;44.484;11.240;2022-10-31T06:35:03;20.20;;;11.50;;
18338;SDS011;9295;44.484;11.240;2022-10-31T06:37:34;19.17;;;11.70;;
18338;SDS011;9295;44.484;11.240;2022-10-31T06:40:19;20.27;;;11.20;;
18338;SDS011;9295;44.484;11.240;2022-10-31T06:43:08;20.33;;;11.20;;
18338;SDS011;9295;44.484;11.240;2022-10-31T06:45:40;23.83;;;11.20;;
18338;SDS011;9295;44.484;11.240;2022-10-31T06:48:33;18.40;;;9.70;;
18338;SDS011;9295;44.484;11.240;2022-10-31T06:51:17;19.50;;;7.40;;
18338;SDS011;9295;44.484;11.240;2022-10-31T06:53:48;11.97;;;7.60;;
18338;SDS011;9295;44.484;11.240;2022-10-31T06:56:18;15.43;;;7.83;;
18338;SDS011;9295;44.484;11.240;2022-10-31T06:58:51;17.63;;;8.47;;
18338;SDS011;9295;44.484;11.240;2022-10-31T07:01:36;13.90;;;7.43;;
18338;SDS011;9295;44.484;11.240;2022-10-31T07:04:05;15.10;;;7.97;;
18338;SDS011;9295;44.484;11.240;2022-10-31T07:06:37;13.00;;;6.90;;
18338;SDS011;9295;44.484;11.240;2022-10-31T07:09:07;13.70;;;6.97;;
18338;SDS011;9295;44.484;11.240;2022-10-31T07:11:36;12.30;;;7.80;;
18338;SDS011;9295;44.484;11.240;2022-10-31T07:14:04;12.33;;;7.30;;
18338;SDS011;9295;44.484;11.240;2022-10-31T07:16:33;13.13;;;6.83;;
18338;SDS011;9295;44.484;11.240;2022-10-31T07:19:04;14.20;;;6.93;;
18338;SDS011;9295;44.484;11.240;2022-10-31T07:21:33;12.63;;;6.73;;
18338;SDS011;9295;44.484;11.240;2022-10-31T07:24:01;13.47;;;7.27;;
18338;SDS011;9295;44.484;11.240;2022-10-31T07:26:41;13.67;;;7.00;;
18338;SDS011;9295;44.484;11.240;2022-10-31T07:29:13;13.37;;;7.17;;
18338;SDS011;9295;44.484;11.240;2022-10-31T07:31:42;13.60;;;6.73;;
18338;SDS011;9295;44.484;11.240;2022-10-31T07:34:37;13.07;;;7.30;;
18338;SDS011;9295;44.484;11.240;2022-10-31T07:37:36;16.00;;;7.27;;
18338;SDS011;9295;44.484;11.240;2022-10-31T07:40:06;17.03;;;7.77;;
18338;SDS011;9295;44.484;11.240;2022-10-31T07:42:36;13.13;;;6.73;;
18338;SDS011;9295;44.484;11.240;2022-10-31T07:45:09;13.00;;;7.47;;
18338;SDS011;9295;44.484;11.240;2022-10-31T07:48:11;25.30;;;8.43;;
18338;SDS011;9295;44.484;11.240;2022-10-31T07:51:00;17.63;;;7.13;;
18338;SDS011;9295;44.484;11.240;2022-10-31T07:53:46;21.87;;;7.37;;
18338;SDS011;9295;44.484;11.240;2022-10-31T07:56:29;12.73;;;7.40;;
18338;SDS011;9295;44.484;11.240;2022-10-31T07:58:59;16.73;;;8.30;;
18338;SDS011;9295;44.484;11.240;2022-10-31T08:01:28;18.83;;;8.20;;
18338;SDS011;9295;44.484;11.240;2022-10-31T08:04:22;17.47;;;8.20;;
18338;SDS011;9295;44.484;11.240;2022-10-31T08:07:10;21.30;;;8.70;;
18338;SDS011;9295;44.484;11.240;2022-10-31T08:09:44;14.67;;;7.50;;
18338;SDS011;9295;44.484;11.240;2022-10-31T08:12:19;15.90;;;7.23;;
18338;SDS011;9295;44.484;11.240;2022-10-31T08:14:48;24.47;;;7.73;;
18338;SDS011;9295;44.484;11.240;2022-10-31T08:17:18;20.00;;;6.80;;
18338;SDS011;9295;44.484;11.240;2022-10-31T08:19:54;17.30;;;6.87;;
18338;SDS011;9295;44.484;11.240;2022-10-31T08:22:37;22.70;;;6.70;;
18338;SDS011;9295;44.484;11.240;2022-10-31T08:25:09;16.00;;;7.07;;
18338;SDS011;9295;44.484;11.240;2022-10-31T08:27:38;11.50;;;5.97;;
18338;SDS011;9295;44.484;11.240;2022-10-31T08:30:14;18.07;;;5.90;;
18338;SDS011;9295;44.484;11.240;2022-10-31T08:33:01;12.07;;;5.47;;
18338;SDS011;9295;44.484;11.240;2022-10-31T08:35:48;10.20;;;5.77;;
18338;SDS011;9295;44.484;11.240;2022-10-31T08:38:44;13.57;;;5.20;;
18338;SDS011;9295;44.484;11.240;2022-10-31T08:41:15;16.80;;;5.93;;
18338;SDS011;9295;44.484;11.240;2022-10-31T08:43:44;14.23;;;5.90;;
18338;SDS011;9295;44.484;11.240;2022-10-31T08:46:14;20.60;;;6.03;;
18338;SDS011;9295;44.484;11.240;2022-10-31T08:48:43;11.57;;;5.67;;
18338;SDS011;9295;44.484;11.240;2022-10-31T08:51:12;15.60;;;6.03;;
18338;SDS011;9295;44.484;11.240;2022-10-31T08:53:41;11.63;;;5.30;;
18338;SDS011;9295;44.484;11.240;2022-10-31T08:56:34;16.93;;;5.30;;
18338;SDS011;9295;44.484;11.240;2022-10-31T08:59:12;14.50;;;6.70;;
18338;SDS011;9295;44.484;11.240;2022-10-31T09:02:04;13.00;;;6.07;;
18338;SDS011;9295;44.484;11.240;2022-10-31T09:04:34;13.17;;;5.13;;
18338;SDS011;9295;44.484;11.240;2022-10-31T09:07:03;16.10;;;5.30;;
18338;SDS011;9295;44.484;11.240;2022-10-31T09:09:48;12.00;;;6.03;;
18338;SDS011;9295;44.484;11.240;2022-10-31T09:12:18;15.50;;;6.43;;
18338;SDS011;9295;44.484;11.240;2022-10-31T09:15:05;12.27;;;5.40;;
18338;SDS011;9295;44.484;11.240;2022-10-31T09:17:57;19.80;;;6.10;;
18338;SDS011;9295;44.484;11.240;2022-10-31T09:20:31;23.97;;;6.63;;
18338;SDS011;9295;44.484;11.240;2022-10-31T09:23:02;23.83;;;6.10;;
18338;SDS011;9295;44.484;11.240;2022-10-31T09:25:35;16.00;;;7.03;;
18338;SDS011;9295;44.484;11.240;2022-10-31T09:28:30;16.27;;;7.20;;
18338;SDS011;9295;44.484;11.240;2022-10-31T09:31:17;18.73;;;7.13;;
18338;SDS011;9295;44.484;11.240;2022-10-31T09:33:54;14.07;;;6.20;;
18338;SDS011;9295;44.484;11.240;2022-10-31T09:36:37;16.43;;;5.80;;
18338;SDS011;9295;44.484;11.240;2022-10-31T09:39:19;16.80;;;6.90;;
18338;SDS011;9295;44.484;11.240;2022-10-31T09:42:09;15.43;;;6.90;;
18338;SDS011;9295;44.484;11.240;2022-10-31T09:44:57;23.93;;;6.73;;
18338;SDS011;9295;44.484;11.240;2022-10-31T09:47:38;30.10;;;7.63;;
18338;SDS011;9295;44.484;11.240;2022-10-31T09:50:43;23.93;;;6.13;;
18338;SDS011;9295;44.484;11.240;2022-10-31T09:53:42;20.63;;;6.63;;
18338;SDS011;9295;44.484;11.240;2022-10-31T09:56:19;10.63;;;5.70;;
18338;SDS011;9295;44.484;11.240;2022-10-31T09:58:53;17.67;;;5.83;;
18338;SDS011;9295;44.484;11.240;2022-10-31T10:01:29;13.30;;;5.97;;
18338;SDS011;9295;44.484;11.240;2022-10-31T10:04:12;12.30;;;6.20;;
18338;SDS011;9295;44.484;11.240;2022-10-31T10:07:20;16.57;;;6.10;;
18338;SDS011;9295;44.484;11.240;2022-10-31T10:10:17;14.53;;;5.87;;
18338;SDS011;9295;44.484;11.240;2022-10-31T10:13:34;14.17;;;5.90;;
18338;SDS011;9295;44.484;11.240;2022-10-31T10:16:24;13.73;;;5.70;;
18338;SDS011;9295;44.484;11.240;2022-10-31T10:19:19;11.13;;;6.50;;
18338;SDS011;9295;44.484;11.240;2022-10-31T10:22:04;16.83;;;6.30;;
18338;SDS011;9295;44.484;11.240;2022-10-31T10:24:45;13.00;;;6.23;;
18338;SDS011;9295;44.484;11.240;2022-10-31T10:27:25;16.23;;;5.80;;
18338;SDS011;9295;44.484;11.240;2022-10-31T10:30:02;12.73;;;5.60;;
18338;SDS011;9295;44.484;11.240;2022-10-31T10:32:40;15.83;;;5.80;;
18338;SDS011;9295;44.484;11.240;2022-10-31T10:35:20;16.53;;;6.17;;
18338;SDS011;9295;44.484;11.240;2022-10-31T10:37:55;15.47;;;6.60;;
18338;SDS011;9295;44.484;11.240;2022-10-31T10:40:37;19.30;;;7.03;;
18338;SDS011;9295;44.484;11.240;2022-10-31T10:43:12;17.40;;;6.20;;
18338;SDS011;9295;44.484;11.240;2022-10-31T10:45:54;22.27;;;6.50;;
18338;SDS011;9295;44.484;11.240;2022-10-31T10:48:48;14.13;;;6.53;;
18338;SDS011;9295;44.484;11.240;2022-10-31T10:51:22;19.60;;;5.63;;
18338;SDS011;9295;44.484;11.240;2022-10-31T10:54:18;18.80;;;6.20;;
18338;SDS011;9295;44.484;11.240;2022-10-31T10:57:07;20.20;;;7.50;;
18338;SDS011;9295;44.484;11.240;2022-10-31T10:59:46;17.83;;;6.30;;
18338;SDS011;9295;44.484;11.240;2022-10-31T11:02:16;14.13;;;6.87;;
18338;SDS011;9295;44.484;11.240;2022-10-31T11:04:48;21.23;;;7.73;;
18338;SDS011;9295;44.484;11.240;2022-10-31T11:07:19;14.90;;;6.60;;
18338;SDS011;9295;44.484;11.240;2022-10-31T11:09:48;16.30;;;7.50;;
18338;SDS011;9295;44.484;11.240;2022-10-31T11:12:17;20.13;;;8.07;;
18338;SDS011;9295;44.484;11.240;2022-10-31T11:14:50;19.23;;;7.60;;
18338;SDS011;9295;44.484;11.240;2022-10-31T11:17:25;17.47;;;7.60;;
18338;SDS011;9295;44.484;11.240;2022-10-31T11:20:02;15.40;;;7.07;;
18338;SDS011;9295;44.484;11.240;2022-10-31T11:22:32;15.40;;;7.00;;
18338;SDS011;9295;44.484;11.240;2022-10-31T11:25:00;21.80;;;7.37;;
18338;SDS011;9295;44.484;11.240;2022-10-31T11:27:44;18.50;;;7.80;;
18338;SDS011;9295;44.484;11.240;2022-10-31T11:30:13;18.53;;;7.30;;
18338;SDS011;9295;44.484;11.240;2022-10-31T11:32:43;25.97;;;8.60;;
18338;SDS011;9295;44.484;11.240;2022-10-31T11:35:20;22.03;;;7.90;;
18338;SDS011;9295;44.484;11.240;2022-10-31T11:37:52;20.03;;;7.77;;
18338;SDS011;9295;44.484;11.240;2022-10-31T11:40:26;17.60;;;8.30;;
18338;SDS011;9295;44.484;11.240;2022-10-31T11:42:55;17.87;;;7.60;;
18338;SDS011;9295;44.484;11.240;2022-10-31T11:45:28;33.47;;;8.10;;
18338;SDS011;9295;44.484;11.240;2022-10-31T11:47:59;17.87;;;7.67;;
18338;SDS011;9295;44.484;11.240;2022-10-31T11:50:32;21.67;;;9.23;;
18338;SDS011;9295;44.484;11.240;2022-10-31T11:53:10;22.20;;;9.60;;
18338;SDS011;9295;44.484;11.240;2022-10-31T11:55:42;17.87;;;8.67;;
18338;SDS011;9295;44.484;11.240;2022-10-31T11:58:19;23.13;;;10.33;;
18338;SDS011;9295;44.484;11.240;2022-10-31T12:00:49;16.17;;;8.90;;
18338;SDS011;9295;44.484;11.240;2022-10-31T12:06:20;21.13;;;10.20;;
18338;SDS011;9295;44.484;11.240;2022-10-31T12:08:51;23.70;;;9.70;;
18338;SDS011;9295;44.484;11.240;2022-10-31T12:14:13;22.57;;;10.03;;
18338;SDS011;9295;44.484;11.240;2022-10-31T12:16:51;18.87;;;9.40;;
18338;SDS011;9295;44.484;11.240;2022-10-31T12:19:28;29.20;;;10.80;;
18338;SDS011;9295;44.484;11.240;2022-10-31T12:22:11;26.63;;;10.30;;
18338;SDS011;9295;44.484;11.240;2022-10-31T12:24:50;21.23;;;10.60;;
18338;SDS011;9295;44.484;11.240;2022-10-31T12:27:40;25.43;;;10.43;;
18338;SDS011;9295;44.484;11.240;2022-10-31T12:30:33;31.73;;;11.30;;
18338;SDS011;9295;44.484;11.240;2022-10-31T12:33:18;26.43;;;11.70;;
18338;SDS011;9295;44.484;11.240;2022-10-31T12:35:58;28.37;;;12.50;;
18338;SDS011;9295;44.484;11.240;2022-10-31T12:41:44;29.00;;;11.67;;
18338;SDS011;9295;44.484;11.240;2022-10-31T12:47:20;24.87;;;11.63;;
18338;SDS011;9295;44.484;11.240;2022-10-31T12:50:12;24.63;;;11.47;;
18338;SDS011;9295;44.484;11.240;2022-10-31T12:52:51;27.60;;;11.67;;
18338;SDS011;9295;44.484;11.240;2022-10-31T12:55:35;27.70;;;12.20;;
18338;SDS011;9295;44.484;11.240;2022-10-31T12:58:10;30.53;;;11.60;;
18338;SDS011;9295;44.484;11.240;2022-10-31T13:00:48;27.40;;;12.60;;
18338;SDS011;9295;44.484;11.240;2022-10-31T13:03:32;26.27;;;11.27;;
18338;SDS011;9295;44.484;11.240;2022-10-31T13:06:12;37.30;;;12.93;;
18338;SDS011;9295;44.484;11.240;2022-10-31T13:08:44;28.70;;;11.77;;
18338;SDS011;9295;44.484;11.240;2022-10-31T13:11:19;34.30;;;12.03;;
18338;SDS011;9295;44.484;11.240;2022-10-31T13:13:54;26.73;;;11.80;;
18338;SDS011;9295;44.484;11.240;2022-10-31T13:16:28;26.83;;;11.30;;
18338;SDS011;9295;44.484;11.240;2022-10-31T13:19:01;25.70;;;11.10;;
18338;SDS011;9295;44.484;11.240;2022-10-31T13:21:36;29.63;;;11.50;;
18338;SDS011;9295;44.484;11.240;2022-10-31T13:24:09;32.47;;;11.60;;
18338;SDS011;9295;44.484;11.240;2022-10-31T13:26:45;27.93;;;12.43;;
18338;SDS011;9295;44.484;11.240;2022-10-31T13:29:18;24.97;;;11.80;;
18338;SDS011;9295;44.484;11.240;2022-10-31T13:31:55;29.80;;;12.60;;
18338;SDS011;9295;44.484;11.240;2022-10-31T13:34:25;28.57;;;12.77;;
18338;SDS011;9295;44.484;11.240;2022-10-31T13:37:01;26.30;;;10.77;;
18338;SDS011;9295;44.484;11.240;2022-10-31T13:39:41;25.47;;;10.37;;
18338;SDS011;9295;44.484;11.240;2022-10-31T13:42:21;27.47;;;10.80;;
18338;SDS011;9295;44.484;11.240;2022-10-31T13:45:06;25.27;;;11.40;;
18338;SDS011;9295;44.484;11.240;2022-10-31T13:47:40;19.33;;;10.80;;
18338;SDS011;9295;44.484;11.240;2022-10-31T13:50:19;26.07;;;11.30;;
18338;SDS011;9295;44.484;11.240;2022-10-31T13:52:49;28.23;;;11.43;;
18338;SDS011;9295;44.484;11.240;2022-10-31T13:55:37;29.80;;;9.73;;
18338;SDS011;9295;44.484;11.240;2022-10-31T13:58:21;24.20;;;9.43;;
18338;SDS011;9295;44.484;11.240;2022-10-31T14:01:05;24.67;;;9.70;;
18338;SDS011;9295;44.484;11.240;2022-10-31T14:03:45;25.80;;;9.77;;
18338;SDS011;9295;44.484;11.240;2022-10-31T14:06:42;23.33;;;9.20;;
18338;SDS011;9295;44.484;11.240;2022-10-31T14:09:23;21.47;;;11.43;;
18338;SDS011;9295;44.484;11.240;2022-10-31T14:11:54;18.53;;;8.67;;
18338;SDS011;9295;44.484;11.240;2022-10-31T14:14:29;19.00;;;9.67;;
18338;SDS011;9295;44.484;11.240;2022-10-31T14:17:01;17.40;;;8.10;;
18338;SDS011;9295;44.484;11.240;2022-10-31T14:19:30;21.23;;;9.67;;
18338;SDS011;9295;44.484;11.240;2022-10-31T14:21:58;27.90;;;10.17;;
18338;SDS011;9295;44.484;11.240;2022-10-31T14:24:31;23.73;;;9.30;;
18338;SDS011;9295;44.484;11.240;2022-10-31T14:27:02;22.40;;;10.43;;
18338;SDS011;9295;44.484;11.240;2022-10-31T14:29:53;25.87;;;10.10;;
18338;SDS011;9295;44.484;11.240;2022-10-31T14:32:22;23.50;;;9.23;;
18338;SDS011;9295;44.484;11.240;2022-10-31T14:34:53;21.57;;;9.23;;
18338;SDS011;9295;44.484;11.240;2022-10-31T14:37:30;28.97;;;8.60;;
18338;SDS011;9295;44.484;11.240;2022-10-31T14:40:18;23.87;;;9.50;;
18338;SDS011;9295;44.484;11.240;2022-10-31T14:43:04;16.57;;;8.17;;
18338;SDS011;9295;44.484;11.240;2022-10-31T14:46:06;25.00;;;9.10;;
18338;SDS011;9295;44.484;11.240;2022-10-31T14:48:50;22.30;;;9.17;;
18338;SDS011;9295;44.484;11.240;2022-10-31T14:51:31;26.10;;;8.33;;
18338;SDS011;9295;44.484;11.240;2022-10-31T14:54:04;16.47;;;8.27;;
18338;SDS011;9295;44.484;11.240;2022-10-31T14:56:35;15.60;;;6.87;;
18338;SDS011;9295;44.484;11.240;2022-10-31T14:59:11;17.13;;;8.20;;
18338;SDS011;9295;44.484;11.240;2022-10-31T15:01:48;24.30;;;8.07;;
18338;SDS011;9295;44.484;11.240;2022-10-31T15:04:23;13.40;;;7.40;;
18338;SDS011;9295;44.484;11.240;2022-10-31T15:07:04;17.77;;;7.70;;
18338;SDS011;9295;44.484;11.240;2022-10-31T15:09:36;18.77;;;7.73;;
18338;SDS011;9295;44.484;11.240;2022-10-31T15:12:21;18.00;;;7.17;;
18338;SDS011;9295;44.484;11.240;2022-10-31T15:14:52;18.27;;;7.20;;
18338;SDS011;9295;44.484;11.240;2022-10-31T15:17:23;22.50;;;6.60;;
18338;SDS011;9295;44.484;11.240;2022-10-31T15:19:53;18.33;;;6.80;;
18338;SDS011;9295;44.484;11.240;2022-10-31T15:22:23;18.00;;;7.17;;
18338;SDS011;9295;44.484;11.240;2022-10-31T15:24:53;16.57;;;7.17;;
18338;SDS011;9295;44.484;11.240;2022-10-31T15:27:23;13.20;;;6.30;;
18338;SDS011;9295;44.484;11.240;2022-10-31T15:29:54;15.37;;;6.20;;
18338;SDS011;9295;44.484;11.240;2022-10-31T15:32:25;11.07;;;6.10;;
18338;SDS011;9295;44.484;11.240;2022-10-31T15:34:54;21.70;;;6.53;;
18338;SDS011;9295;44.484;11.240;2022-10-31T15:37:24;14.87;;;6.40;;
18338;SDS011;9295;44.484;11.240;2022-10-31T15:39:53;22.90;;;7.30;;